createdAt,value
2019-01-03T00:00:59.960Z,81.79
2019-01-03T00:02:00.127Z,81.79
2019-01-03T00:03:00.284Z,82.54
2019-01-03T00:04:00.460Z,82.64
2019-01-03T00:05:00.629Z,81.79
2019-01-03T00:06:00.803Z,81.51
2019-01-03T00:07:00.962Z,81.70
2019-01-03T00:08:01.141Z,82.83
2019-01-03T00:09:01.319Z,82.45
2019-01-03T00:10:01.481Z,82.73
2019-01-03T00:11:01.663Z,82.45
2019-01-03T00:12:01.823Z,82.54
2019-01-03T00:13:01.994Z,83.02
2019-01-03T00:14:02.161Z,82.73
2019-01-03T00:15:02.338Z,83.68
2019-01-03T00:16:02.489Z,83.40
2019-01-03T00:17:02.676Z,83.30
2019-01-03T00:18:02.851Z,83.40
2019-01-03T00:19:04.131Z,83.02
2019-01-03T00:20:03.170Z,83.02
2019-01-03T00:21:03.336Z,83.02
2019-01-03T00:22:03.528Z,83.02
2019-01-03T00:23:03.675Z,83.11
2019-01-03T00:24:03.848Z,83.21
2019-01-03T00:25:04.015Z,83.02
2019-01-03T00:26:04.178Z,83.30
2019-01-03T00:27:04.335Z,82.83
2019-01-03T00:28:04.550Z,82.64
2019-01-03T00:29:04.689Z,82.83
2019-01-03T00:30:04.847Z,82.83
2019-01-03T00:31:05.021Z,82.92
2019-01-03T00:32:05.188Z,82.26
2019-01-03T00:33:05.352Z,82.45
2019-01-03T00:34:05.531Z,82.92
2019-01-03T00:35:05.694Z,82.92
2019-01-03T00:36:05.864Z,82.73
2019-01-03T00:37:06.026Z,82.73
2019-01-03T00:38:06.193Z,83.02
2019-01-03T00:39:06.398Z,83.02
2019-01-03T00:40:06.540Z,83.21
2019-01-03T00:41:06.704Z,83.21
2019-01-03T00:42:06.872Z,83.02
2019-01-03T00:43:07.046Z,82.83
2019-01-03T00:44:07.235Z,82.64
2019-01-03T00:45:07.420Z,83.02
2019-01-03T00:46:07.570Z,83.59
2019-01-03T00:47:07.732Z,83.68
2019-01-03T00:48:07.910Z,83.49
2019-01-03T00:49:08.071Z,84.44
2019-01-03T00:50:08.241Z,84.34
2019-01-03T00:51:08.432Z,84.44
2019-01-03T00:52:08.576Z,84.25
2019-01-03T00:53:08.745Z,84.44
2019-01-03T00:54:08.915Z,84.63
2019-01-03T00:55:09.081Z,84.44
2019-01-03T00:56:09.251Z,84.53
2019-01-03T00:57:09.418Z,84.53
2019-01-03T00:58:09.586Z,84.34
2019-01-03T00:59:09.756Z,84.34
2019-01-03T01:00:09.919Z,84.44
2019-01-03T01:01:10.093Z,84.53
2019-01-03T01:02:10.253Z,84.25
2019-01-03T01:03:10.432Z,84.91
2019-01-03T01:04:10.599Z,84.63
2019-01-03T01:05:10.772Z,84.72
2019-01-03T01:06:10.944Z,84.34
2019-01-03T01:07:11.103Z,84.34
2019-01-03T01:08:11.276Z,84.16
2019-01-03T01:09:11.440Z,84.34
2019-01-03T01:10:11.630Z,84.16
2019-01-03T01:11:11.780Z,84.25
2019-01-03T01:13:12.116Z,84.72
2019-01-03T01:14:12.282Z,84.63
2019-01-03T01:15:12.454Z,84.53
2019-01-03T01:16:12.622Z,84.63
2019-01-03T01:17:12.794Z,84.25
2019-01-03T01:18:12.959Z,84.63
2019-01-03T01:19:13.126Z,83.78
2019-01-03T01:20:13.301Z,83.78
2019-01-03T01:21:13.472Z,83.40
2019-01-03T01:22:13.637Z,83.49
2019-01-03T01:23:13.818Z,84.16
2019-01-03T01:24:13.981Z,84.44
2019-01-03T01:25:14.151Z,84.16
2019-01-03T01:26:14.311Z,84.81
2019-01-03T01:27:14.490Z,84.44
2019-01-03T01:28:14.648Z,85.38
2019-01-03T01:29:14.822Z,85.53
2019-01-03T01:30:14.988Z,86.57
2019-01-03T01:31:15.161Z,86.76
2019-01-03T01:32:15.327Z,86.94
2019-01-03T01:33:15.495Z,87.23
2019-01-03T01:34:15.668Z,87.70
2019-01-03T01:35:15.837Z,88.36
2019-01-03T01:36:16.005Z,88.55
2019-01-03T01:37:16.174Z,88.65
2019-01-03T01:38:16.338Z,88.65
2019-01-03T01:39:16.505Z,88.17
2019-01-03T01:40:16.673Z,88.46
2019-01-03T01:41:16.846Z,88.08
2019-01-03T01:42:17.012Z,87.89
2019-01-03T01:43:17.183Z,87.98
2019-01-03T01:44:17.350Z,88.08
2019-01-03T01:45:17.512Z,88.08
2019-01-03T01:46:17.681Z,87.42
2019-01-03T01:47:17.850Z,87.23
2019-01-03T01:48:18.016Z,86.76
2019-01-03T01:49:18.187Z,86.85
2019-01-03T01:50:18.364Z,86.94
2019-01-03T01:51:18.529Z,86.85
2019-01-03T01:52:18.697Z,86.85
2019-01-03T01:53:18.865Z,87.61
2019-01-03T01:54:19.031Z,87.79
2019-01-03T01:55:19.202Z,87.79
2019-01-03T01:56:19.373Z,87.70
2019-01-03T01:57:19.554Z,87.13
2019-01-03T01:58:19.702Z,86.85
2019-01-03T01:59:19.869Z,86.94
2019-01-03T02:00:20.048Z,86.94
2019-01-03T02:01:20.214Z,86.94
2019-01-03T02:02:20.375Z,86.57
2019-01-03T02:03:20.574Z,86.00
2019-01-03T02:04:20.709Z,86.38
2019-01-03T02:05:20.878Z,86.57
2019-01-03T02:06:21.040Z,86.47
2019-01-03T02:07:21.209Z,86.76
2019-01-03T02:08:21.379Z,86.76
2019-01-03T02:09:21.557Z,87.98
2019-01-03T02:10:21.722Z,88.46
2019-01-03T02:11:21.897Z,88.36
2019-01-03T02:12:22.047Z,89.12
2019-01-03T02:13:22.230Z,89.59
2019-01-03T02:14:22.393Z,90.40
2019-01-03T02:15:22.562Z,90.73
2019-01-03T02:16:22.772Z,90.25
2019-01-03T02:17:22.903Z,91.20
2019-01-03T02:18:23.068Z,91.01
2019-01-03T02:19:23.232Z,90.54
2019-01-03T02:20:23.399Z,90.16
2019-01-03T02:21:23.573Z,90.25
2019-01-03T02:22:23.738Z,89.87
2019-01-03T02:23:23.905Z,89.69
2019-01-03T02:24:24.074Z,88.93
2019-01-03T02:25:24.255Z,88.84
2019-01-03T02:26:24.404Z,88.93
2019-01-03T02:27:24.572Z,89.03
2019-01-03T02:28:24.742Z,88.84
2019-01-03T02:29:24.909Z,88.84
2019-01-03T02:30:25.084Z,88.74
2019-01-03T02:31:25.257Z,88.36
2019-01-03T02:32:25.420Z,87.61
2019-01-03T02:33:25.606Z,87.13
2019-01-03T02:34:25.782Z,87.32
2019-01-03T02:36:26.095Z,87.04
2019-01-03T02:37:26.266Z,87.32
2019-01-03T02:38:26.436Z,87.04
2019-01-03T02:39:26.597Z,87.32
2019-01-03T02:40:26.774Z,87.04
2019-01-03T02:41:26.951Z,87.04
2019-01-03T02:42:27.110Z,87.89
2019-01-03T02:43:27.278Z,87.70
2019-01-03T02:44:27.447Z,88.55
2019-01-03T02:45:27.622Z,88.74
2019-01-03T02:46:27.799Z,88.65
2019-01-03T02:47:27.966Z,89.03
2019-01-03T02:48:28.132Z,89.78
2019-01-03T02:49:28.312Z,90.16
2019-01-03T02:50:28.467Z,89.78
2019-01-03T02:51:28.639Z,89.69
2019-01-03T02:52:28.795Z,89.69
2019-01-03T02:53:28.964Z,89.69
2019-01-03T02:54:29.135Z,89.40
2019-01-03T02:55:29.307Z,89.59
2019-01-03T02:56:29.476Z,89.50
2019-01-03T02:57:29.644Z,89.50
2019-01-03T02:58:29.807Z,89.31
2019-01-03T02:59:29.984Z,89.31
2019-01-03T03:00:30.154Z,89.50
2019-01-03T03:01:30.331Z,89.50
2019-01-03T03:02:30.482Z,89.22
2019-01-03T03:03:30.643Z,89.31
2019-01-03T03:04:30.815Z,89.50
2019-01-03T03:05:30.978Z,88.84
2019-01-03T03:06:31.158Z,88.84
2019-01-03T03:07:31.318Z,89.03
2019-01-03T03:08:31.498Z,88.93
2019-01-03T03:09:31.659Z,88.84
2019-01-03T03:10:31.829Z,89.31
2019-01-03T03:11:31.992Z,89.50
2019-01-03T03:12:32.163Z,89.31
2019-01-03T03:13:32.335Z,89.31
2019-01-03T03:14:32.502Z,89.50
2019-01-03T03:15:32.653Z,89.97
2019-01-03T03:16:32.832Z,89.78
2019-01-03T03:17:32.991Z,90.68
2019-01-03T03:18:33.163Z,91.01
2019-01-03T03:19:33.330Z,91.48
2019-01-03T03:20:33.502Z,91.58
2019-01-03T03:21:33.671Z,91.29
2019-01-03T03:22:33.836Z,91.29
2019-01-03T03:23:34.007Z,91.39
2019-01-03T03:24:34.178Z,90.91
2019-01-03T03:25:34.342Z,90.35
2019-01-03T03:26:34.505Z,90.73
2019-01-03T03:27:34.678Z,90.54
2019-01-03T03:28:34.846Z,90.54
2019-01-03T03:29:35.016Z,90.91
2019-01-03T03:30:35.203Z,90.25
2019-01-03T03:31:35.364Z,90.16
2019-01-03T03:32:35.537Z,90.06
2019-01-03T03:33:35.692Z,89.78
2019-01-03T03:34:35.866Z,90.16
2019-01-03T03:35:36.034Z,90.06
2019-01-03T03:36:36.204Z,90.35
2019-01-03T03:37:36.371Z,90.82
2019-01-03T03:38:36.546Z,90.44
2019-01-03T03:39:36.718Z,90.63
2019-01-03T03:40:36.882Z,90.73
2019-01-03T03:41:37.049Z,90.44
2019-01-03T03:42:37.227Z,90.54
2019-01-03T03:43:37.396Z,90.82
2019-01-03T03:44:37.561Z,90.44
2019-01-03T03:45:37.730Z,90.73
2019-01-03T03:46:37.905Z,90.35
2019-01-03T03:47:38.066Z,90.44
2019-01-03T03:48:38.234Z,90.63
2019-01-03T03:49:38.401Z,90.91
2019-01-03T03:50:38.572Z,91.10
2019-01-03T03:51:38.740Z,90.16
2019-01-03T03:52:38.922Z,90.44
2019-01-03T03:53:39.081Z,90.44
2019-01-03T03:54:39.257Z,90.25
2019-01-03T03:55:39.435Z,90.54
2019-01-03T03:56:39.607Z,90.54
2019-01-03T03:57:39.759Z,90.16
2019-01-03T03:58:39.927Z,90.16
2019-01-03T03:59:40.094Z,90.82
2019-01-03T04:00:40.259Z,90.82
2019-01-03T04:01:40.435Z,90.44
2019-01-03T04:02:40.603Z,90.82
2019-01-03T04:03:40.776Z,91.01
2019-01-03T04:04:40.939Z,90.06
2019-01-03T04:05:41.111Z,89.87
2019-01-03T04:06:41.277Z,90.54
2019-01-03T04:07:41.453Z,90.16
2019-01-03T04:08:41.609Z,90.54
2019-01-03T04:09:41.790Z,90.35
2019-01-03T04:10:41.957Z,90.16
2019-01-03T04:11:42.112Z,90.82
2019-01-03T04:12:42.280Z,90.06
2019-01-03T04:13:42.451Z,90.16
2019-01-03T04:14:42.616Z,90.44
2019-01-03T04:15:42.786Z,91.01
2019-01-03T04:16:42.956Z,90.54
2019-01-03T04:17:43.125Z,91.01
2019-01-03T04:18:43.295Z,90.44
2019-01-03T04:19:43.464Z,90.44
2019-01-03T04:20:43.634Z,90.16
2019-01-03T04:21:43.804Z,90.73
2019-01-03T04:22:43.972Z,91.01
2019-01-03T04:23:44.144Z,90.82
2019-01-03T04:24:44.319Z,90.91
2019-01-03T04:25:44.482Z,91.01
2019-01-03T04:26:44.651Z,90.91
2019-01-03T04:27:44.819Z,89.87
2019-01-03T04:28:44.982Z,90.11
2019-01-03T04:29:45.161Z,90.21
2019-01-03T04:30:45.326Z,90.30
2019-01-03T04:31:45.490Z,90.16
2019-01-03T04:32:45.662Z,90.54
2019-01-03T04:33:45.853Z,90.96
2019-01-03T04:34:45.991Z,90.77
2019-01-03T04:35:46.161Z,91.29
2019-01-03T04:36:46.343Z,90.44
2019-01-03T04:37:46.504Z,90.54
2019-01-03T04:38:46.676Z,90.73
2019-01-03T04:39:46.842Z,90.73
2019-01-03T04:40:47.013Z,90.06
2019-01-03T04:41:47.186Z,90.16
2019-01-03T04:42:47.355Z,90.63
2019-01-03T04:43:47.513Z,90.54
2019-01-03T04:44:47.679Z,90.91
2019-01-03T04:45:47.856Z,90.87
2019-01-03T04:46:48.020Z,90.87
2019-01-03T04:47:48.188Z,91.44
2019-01-03T04:48:48.354Z,91.67
2019-01-03T04:49:48.528Z,91.39
2019-01-03T04:50:48.705Z,91.39
2019-01-03T04:51:48.866Z,91.48
2019-01-03T04:52:49.043Z,91.29
2019-01-03T04:53:49.205Z,91.67
2019-01-03T04:54:49.370Z,91.20
2019-01-03T04:55:49.551Z,91.01
2019-01-03T04:56:49.704Z,90.91
2019-01-03T04:57:49.872Z,91.06
2019-01-03T04:58:50.042Z,91.20
2019-01-03T04:59:50.210Z,91.58
2019-01-03T05:00:50.380Z,91.72
2019-01-03T05:01:50.549Z,91.82
2019-01-03T05:02:50.719Z,92.38
2019-01-03T05:03:50.888Z,92.66
2019-01-03T05:04:51.058Z,93.61
2019-01-03T05:05:51.224Z,93.89
2019-01-03T05:06:51.386Z,93.89
2019-01-03T05:07:51.559Z,94.18
2019-01-03T05:08:51.739Z,94.56
2019-01-03T05:09:51.899Z,94.74
2019-01-03T05:10:52.070Z,95.45
2019-01-03T05:11:52.237Z,96.73
2019-01-03T05:12:52.405Z,96.44
2019-01-03T05:13:52.579Z,96.44
2019-01-03T05:14:52.744Z,96.20
2019-01-03T05:15:52.921Z,96.39
2019-01-03T05:16:53.079Z,96.77
2019-01-03T05:17:53.256Z,97.72
2019-01-03T05:18:53.418Z,98.38
2019-01-03T05:19:53.579Z,98.38
2019-01-03T05:21:53.914Z,98.19
2019-01-03T05:22:54.085Z,98.05
2019-01-03T05:23:57.225Z,97.39
2019-01-03T05:24:54.424Z,97.10
2019-01-03T05:25:54.596Z,96.06
2019-01-03T05:26:54.755Z,96.44
2019-01-03T05:27:54.939Z,96.06
2019-01-03T05:28:55.092Z,95.59
2019-01-03T05:29:55.260Z,95.31
2019-01-03T05:30:55.432Z,94.65
2019-01-03T05:31:55.595Z,94.65
2019-01-03T05:32:55.767Z,95.03
2019-01-03T05:33:55.930Z,93.99
2019-01-03T05:34:56.102Z,93.80
2019-01-03T05:35:56.269Z,93.80
2019-01-03T05:36:56.434Z,93.61
2019-01-03T05:37:56.612Z,93.32
2019-01-03T05:38:56.775Z,92.94
2019-01-03T05:39:56.946Z,92.94
2019-01-03T05:40:57.103Z,92.66
2019-01-03T05:41:57.277Z,92.57
2019-01-03T05:42:57.455Z,93.04
2019-01-03T05:43:57.608Z,93.13
2019-01-03T05:44:57.773Z,93.80
2019-01-03T05:45:58.739Z,93.89
2019-01-03T05:46:58.112Z,93.13
2019-01-03T05:47:58.289Z,92.94
2019-01-03T05:48:58.485Z,93.13
2019-01-03T05:49:58.605Z,93.04
2019-01-03T05:50:58.791Z,93.13
2019-01-03T05:51:58.957Z,93.13
2019-01-03T05:52:59.132Z,93.23
2019-01-03T05:53:59.311Z,93.42
2019-01-03T05:54:59.473Z,93.89
2019-01-03T05:55:59.643Z,93.80
2019-01-03T05:56:59.810Z,93.51
2019-01-03T05:57:59.977Z,93.70
2019-01-03T05:59:00.146Z,93.70
2019-01-03T06:00:00.313Z,93.80
2019-01-03T06:01:00.483Z,94.18
2019-01-03T06:02:00.654Z,93.80
2019-01-03T06:03:00.824Z,94.08
2019-01-03T06:04:00.988Z,93.42
2019-01-03T06:05:01.159Z,93.32
2019-01-03T06:06:01.327Z,92.85
2019-01-03T06:07:01.517Z,93.13
2019-01-03T06:08:01.684Z,92.94
2019-01-03T06:09:01.880Z,93.04
2019-01-03T06:10:02.011Z,93.32
2019-01-03T06:11:02.175Z,93.89
2019-01-03T06:12:02.339Z,93.99
2019-01-03T06:13:02.506Z,93.89
2019-01-03T06:14:02.674Z,93.99
2019-01-03T06:15:03.636Z,93.99
2019-01-03T06:16:03.010Z,93.61
2019-01-03T06:17:03.178Z,93.70
2019-01-03T06:18:03.353Z,93.99
2019-01-03T06:19:03.511Z,94.27
2019-01-03T06:20:03.699Z,94.18
2019-01-03T06:21:04.016Z,94.27
2019-01-03T06:22:04.027Z,94.37
2019-01-03T06:23:04.197Z,94.08
2019-01-03T06:24:04.367Z,93.80
2019-01-03T06:25:04.548Z,93.70
2019-01-03T06:26:04.702Z,93.42
2019-01-03T06:27:04.860Z,93.13
2019-01-03T06:28:05.035Z,93.13
2019-01-03T06:29:05.190Z,93.32
2019-01-03T06:30:05.353Z,93.61
2019-01-03T06:31:05.511Z,93.80
2019-01-03T06:32:05.689Z,93.89
2019-01-03T06:33:05.859Z,93.89
2019-01-03T06:34:06.025Z,93.89
2019-01-03T06:35:06.201Z,93.70
2019-01-03T06:36:06.380Z,94.18
2019-01-03T06:37:06.535Z,94.08
2019-01-03T06:38:06.704Z,93.89
2019-01-03T06:39:06.874Z,93.89
2019-01-03T06:40:07.587Z,94.08
2019-01-03T06:41:08.090Z,93.80
2019-01-03T06:42:07.357Z,94.18
2019-01-03T06:43:07.526Z,94.37
2019-01-03T06:44:07.688Z,94.18
2019-01-03T06:45:07.858Z,94.08
2019-01-03T06:46:08.021Z,93.89
2019-01-03T06:47:08.191Z,93.89
2019-01-03T06:48:08.371Z,93.80
2019-01-03T06:49:08.527Z,93.89
2019-01-03T06:50:08.699Z,93.70
2019-01-03T06:51:08.866Z,93.99
2019-01-03T06:52:09.036Z,94.08
2019-01-03T06:53:09.203Z,94.37
2019-01-03T06:54:09.378Z,94.74
2019-01-03T06:55:09.545Z,94.27
2019-01-03T06:56:09.713Z,94.74
2019-01-03T06:57:11.773Z,94.56
2019-01-03T06:58:10.066Z,95.31
2019-01-03T06:59:10.226Z,95.97
2019-01-03T07:00:10.417Z,96.06
2019-01-03T07:01:10.569Z,95.68
2019-01-03T07:02:10.745Z,96.44
2019-01-03T07:03:10.900Z,95.40
2019-01-03T07:04:11.060Z,95.31
2019-01-03T07:05:11.237Z,95.40
2019-01-03T07:06:11.405Z,95.78
2019-01-03T07:07:11.584Z,95.40
2019-01-03T07:08:11.749Z,95.68
2019-01-03T07:09:12.105Z,95.31
2019-01-03T07:10:12.082Z,95.40
2019-01-03T07:11:12.238Z,96.16
2019-01-03T07:12:12.415Z,96.06
2019-01-03T07:13:12.584Z,95.59
2019-01-03T07:14:12.750Z,95.40
2019-01-03T07:15:12.921Z,95.31
2019-01-03T07:16:13.098Z,94.84
2019-01-03T07:17:13.269Z,94.93
2019-01-03T07:18:13.423Z,94.84
2019-01-03T07:19:13.592Z,94.65
2019-01-03T07:20:13.753Z,95.03
2019-01-03T07:21:13.917Z,95.12
2019-01-03T07:22:14.070Z,95.31
2019-01-03T07:23:14.261Z,95.31
2019-01-03T07:24:14.408Z,94.84
2019-01-03T07:25:14.588Z,94.37
2019-01-03T07:26:14.740Z,94.37
2019-01-03T07:27:14.913Z,94.65
2019-01-03T07:28:15.069Z,94.56
2019-01-03T07:29:15.237Z,94.84
2019-01-03T07:30:15.413Z,94.56
2019-01-03T07:31:15.571Z,94.65
2019-01-03T07:32:15.744Z,95.50
2019-01-03T07:33:15.908Z,95.40
2019-01-03T07:34:16.079Z,95.78
2019-01-03T07:35:16.238Z,95.40
2019-01-03T07:36:16.419Z,95.59
2019-01-03T07:37:16.576Z,95.59
2019-01-03T07:38:16.755Z,95.87
2019-01-03T07:39:16.912Z,96.63
2019-01-03T07:40:17.080Z,96.39
2019-01-03T07:41:17.252Z,96.35
2019-01-03T07:42:17.428Z,96.73
2019-01-03T07:43:17.574Z,96.35
2019-01-03T07:44:17.746Z,96.91
2019-01-03T07:45:17.913Z,97.10
2019-01-03T07:46:18.082Z,97.20
2019-01-03T07:47:18.254Z,97.05
2019-01-03T07:48:18.421Z,96.82
2019-01-03T07:49:18.583Z,96.63
2019-01-03T07:50:18.761Z,97.20
2019-01-03T07:51:18.914Z,97.29
2019-01-03T07:52:19.088Z,96.82
2019-01-03T07:53:19.263Z,97.20
2019-01-03T07:54:19.417Z,96.82
2019-01-03T07:55:19.605Z,97.01
2019-01-03T07:56:19.767Z,97.01
2019-01-03T07:57:19.934Z,96.35
2019-01-03T07:58:20.112Z,96.44
2019-01-03T07:59:20.271Z,95.87
2019-01-03T08:00:20.441Z,96.44
2019-01-03T08:01:20.608Z,95.40
2019-01-03T08:02:20.775Z,95.40
2019-01-03T08:03:20.946Z,95.68
2019-01-03T08:04:21.153Z,95.87
2019-01-03T08:05:21.264Z,96.06
2019-01-03T08:07:21.619Z,96.35
2019-01-03T08:08:21.775Z,95.78
2019-01-03T08:09:21.919Z,95.59
2019-01-03T08:10:22.085Z,94.65
2019-01-03T08:11:22.254Z,94.56
2019-01-03T08:12:22.418Z,94.46
2019-01-03T08:13:22.590Z,94.65
2019-01-03T08:14:22.758Z,94.65
2019-01-03T08:15:22.920Z,95.21
2019-01-03T08:16:23.090Z,95.50
2019-01-03T08:17:23.260Z,95.50
2019-01-03T08:18:23.426Z,95.59
2019-01-03T08:19:23.597Z,95.59
2019-01-03T08:20:23.779Z,95.87
2019-01-03T08:21:23.929Z,95.50
2019-01-03T08:22:24.143Z,95.68
2019-01-03T08:23:24.268Z,95.87
2019-01-03T08:24:24.444Z,95.97
2019-01-03T08:25:24.603Z,96.06
2019-01-03T08:26:24.774Z,96.25
2019-01-03T08:27:24.948Z,96.06
2019-01-03T08:28:25.107Z,95.50
2019-01-03T08:29:25.277Z,95.87
2019-01-03T08:30:25.446Z,94.70
2019-01-03T08:31:25.612Z,94.41
2019-01-03T08:32:25.781Z,94.98
2019-01-03T08:33:25.949Z,94.03
2019-01-03T08:34:26.127Z,94.32
2019-01-03T08:35:26.305Z,93.94
2019-01-03T08:36:26.456Z,93.84
2019-01-03T08:37:26.629Z,93.94
2019-01-03T08:38:26.799Z,93.37
2019-01-03T08:39:26.972Z,92.99
2019-01-03T08:40:27.162Z,93.18
2019-01-03T08:41:27.323Z,92.24
2019-01-03T08:42:27.493Z,92.33
2019-01-03T08:43:27.667Z,92.61
2019-01-03T08:44:27.838Z,91.67
2019-01-03T08:45:28.000Z,91.86
2019-01-03T08:46:28.160Z,92.61
2019-01-03T08:47:28.330Z,92.61
2019-01-03T08:48:28.568Z,92.24
2019-01-03T08:49:28.705Z,93.18
2019-01-03T08:50:28.872Z,93.47
2019-01-03T08:51:29.042Z,93.56
2019-01-03T08:52:29.225Z,93.84
2019-01-03T08:53:29.375Z,93.84
2019-01-03T08:54:29.571Z,93.47
2019-01-03T08:55:29.708Z,93.94
2019-01-03T08:56:29.876Z,93.84
2019-01-03T08:57:30.041Z,93.56
2019-01-03T08:58:30.230Z,93.47
2019-01-03T08:59:30.377Z,93.28
2019-01-03T09:00:30.548Z,93.28
2019-01-03T09:01:30.734Z,92.80
2019-01-03T09:02:30.887Z,93.18
2019-01-03T09:03:31.050Z,93.18
2019-01-03T09:04:31.217Z,93.09
2019-01-03T09:05:31.384Z,93.37
2019-01-03T09:06:31.559Z,93.18
2019-01-03T09:07:31.726Z,93.37
2019-01-03T09:08:31.877Z,92.80
2019-01-03T09:09:32.062Z,93.09
2019-01-03T09:10:32.232Z,93.09
2019-01-03T09:11:32.411Z,92.90
2019-01-03T09:12:32.567Z,92.99
2019-01-03T09:13:32.735Z,91.96
2019-01-03T09:14:32.916Z,92.71
2019-01-03T09:15:33.077Z,92.43
2019-01-03T09:16:33.230Z,92.80
2019-01-03T09:17:33.409Z,94.03
2019-01-03T09:18:33.582Z,93.94
2019-01-03T09:19:33.751Z,93.94
2019-01-03T09:20:33.915Z,94.32
2019-01-03T09:21:34.094Z,94.13
2019-01-03T09:22:34.266Z,94.60
2019-01-03T09:23:34.425Z,94.89
2019-01-03T09:24:34.612Z,94.70
2019-01-03T09:25:34.788Z,93.75
2019-01-03T09:26:34.956Z,93.18
2019-01-03T09:27:35.121Z,93.18
2019-01-03T09:28:35.291Z,93.18
2019-01-03T09:29:35.466Z,93.56
2019-01-03T09:30:35.612Z,93.94
2019-01-03T09:31:35.780Z,93.66
2019-01-03T09:32:35.964Z,93.37
2019-01-03T09:33:36.120Z,93.47
2019-01-03T09:34:36.302Z,92.99
2019-01-03T09:35:36.470Z,93.37
2019-01-03T09:36:36.664Z,93.28
2019-01-03T09:37:36.833Z,93.84
2019-01-03T09:38:37.041Z,94.03
2019-01-03T09:39:37.198Z,93.66
2019-01-03T09:40:37.386Z,93.47
2019-01-03T09:42:37.703Z,94.13
2019-01-03T09:43:37.864Z,94.03
2019-01-03T09:44:38.028Z,93.75
2019-01-03T09:45:44.066Z,94.41
2019-01-03T09:46:38.356Z,94.70
2019-01-03T09:47:38.526Z,94.70
2019-01-03T09:48:38.696Z,94.32
2019-01-03T09:49:38.866Z,94.32
2019-01-03T09:50:39.043Z,94.79
2019-01-03T09:51:39.207Z,94.60
2019-01-03T09:52:39.380Z,94.60
2019-01-03T09:53:39.557Z,94.79
2019-01-03T09:54:39.720Z,94.51
2019-01-03T09:55:39.891Z,94.32
2019-01-03T09:56:40.062Z,95.45
2019-01-03T09:57:40.239Z,95.54
2019-01-03T09:58:40.387Z,95.54
2019-01-03T09:59:40.552Z,95.92
2019-01-03T10:00:40.724Z,95.17
2019-01-03T10:01:40.898Z,95.92
2019-01-03T10:02:41.063Z,95.45
2019-01-03T10:03:41.237Z,95.54
2019-01-03T10:04:41.407Z,95.73
2019-01-03T10:05:41.566Z,95.73
2019-01-03T10:06:41.735Z,96.21
2019-01-03T10:07:41.918Z,96.30
2019-01-03T10:08:42.075Z,95.64
2019-01-03T10:09:42.240Z,96.30
2019-01-03T10:10:42.411Z,96.83
2019-01-03T10:11:42.584Z,97.20
2019-01-03T10:12:42.758Z,98.05
2019-01-03T10:13:42.924Z,97.39
2019-01-03T10:14:43.104Z,97.96
2019-01-03T10:15:43.269Z,97.30
2019-01-03T10:16:43.438Z,97.96
2019-01-03T10:17:43.603Z,98.05
2019-01-03T10:18:43.769Z,98.05
2019-01-03T10:19:43.950Z,98.33
2019-01-03T10:20:44.110Z,98.43
2019-01-03T10:21:44.285Z,98.71
2019-01-03T10:22:44.460Z,98.71
2019-01-03T10:23:44.627Z,98.81
2019-01-03T10:24:44.797Z,98.81
2019-01-03T10:25:44.997Z,99.66
2019-01-03T10:26:45.116Z,99.38
2019-01-03T10:27:45.287Z,99.38
2019-01-03T10:28:45.457Z,99.38
2019-01-03T10:29:45.626Z,99.47
2019-01-03T10:30:45.793Z,99.99
2019-01-03T10:31:45.962Z,99.99
2019-01-03T10:32:46.141Z,99.99
2019-01-03T10:33:46.303Z,99.99
2019-01-03T10:34:46.472Z,99.99
2019-01-03T10:35:46.636Z,99.99
2019-01-03T10:36:46.810Z,99.99
2019-01-03T10:37:46.990Z,99.99
2019-01-03T10:38:47.147Z,99.99
2019-01-03T10:39:47.315Z,99.99
2019-01-03T10:40:47.488Z,99.99
2019-01-03T10:41:47.656Z,99.99
2019-01-03T10:42:47.821Z,99.99
2019-01-03T10:43:48.012Z,99.99
2019-01-03T10:44:48.181Z,99.99
2019-01-03T10:45:48.345Z,99.99
2019-01-03T10:46:48.518Z,99.99
2019-01-03T10:47:48.697Z,99.99
2019-01-03T10:48:48.856Z,99.99
2019-01-03T10:49:49.026Z,99.99
2019-01-03T10:50:49.200Z,99.99
2019-01-03T10:51:49.368Z,99.99
2019-01-03T10:52:49.533Z,99.99
2019-01-03T10:53:49.701Z,99.99
2019-01-03T10:54:49.869Z,99.99
2019-01-03T10:55:50.038Z,99.99
2019-01-03T10:56:50.206Z,99.99
2019-01-03T10:57:50.386Z,99.99
2019-01-03T10:58:50.543Z,99.43
2019-01-03T10:59:51.021Z,99.05
2019-01-03T11:00:50.880Z,99.24
2019-01-03T11:01:51.070Z,99.24
2019-01-03T11:02:51.217Z,99.71
2019-01-03T11:03:51.391Z,99.62
2019-01-03T11:04:51.553Z,99.71
2019-01-03T11:05:51.730Z,99.05
2019-01-03T11:06:51.908Z,98.29
2019-01-03T11:07:52.069Z,98.67
2019-01-03T11:08:52.239Z,98.48
2019-01-03T11:09:52.418Z,98.29
2019-01-03T11:10:52.605Z,98.58
2019-01-03T11:11:52.761Z,98.86
2019-01-03T11:12:52.934Z,99.24
2019-01-03T11:13:53.101Z,98.77
2019-01-03T11:14:53.278Z,98.58
2019-01-03T11:15:53.427Z,98.48
2019-01-03T11:16:53.598Z,98.29
2019-01-03T11:17:53.760Z,98.39
2019-01-03T11:18:53.930Z,98.58
2019-01-03T11:19:54.101Z,98.29
2019-01-03T11:20:54.269Z,98.20
2019-01-03T11:21:54.441Z,98.48
2019-01-03T11:22:54.607Z,97.72
2019-01-03T11:23:54.783Z,98.58
2019-01-03T11:24:54.949Z,98.39
2019-01-03T11:25:55.109Z,98.01
2019-01-03T11:26:55.296Z,98.96
2019-01-03T11:27:55.445Z,98.58
2019-01-03T11:28:55.612Z,98.58
2019-01-03T11:29:55.782Z,98.77
2019-01-03T11:30:55.946Z,98.67
2019-01-03T11:31:56.112Z,98.48
2019-01-03T11:32:56.284Z,98.48
2019-01-03T11:33:56.456Z,98.67
2019-01-03T11:34:56.620Z,98.20
2019-01-03T11:35:56.799Z,98.29
2019-01-03T11:36:56.970Z,98.67
2019-01-03T11:37:57.135Z,98.39
2019-01-03T11:38:57.306Z,98.58
2019-01-03T11:39:57.476Z,98.67
2019-01-03T11:40:57.647Z,98.48
2019-01-03T11:41:57.876Z,98.48
2019-01-03T11:42:57.998Z,98.67
2019-01-03T11:43:58.168Z,98.39
2019-01-03T11:44:58.340Z,98.29
2019-01-03T11:45:58.500Z,98.77
2019-01-03T11:46:58.675Z,98.39
2019-01-03T11:47:58.845Z,98.39
2019-01-03T11:48:59.033Z,98.10
2019-01-03T11:49:59.196Z,97.63
2019-01-03T11:50:59.365Z,98.01
2019-01-03T11:51:59.746Z,97.91
2019-01-03T11:52:59.662Z,98.10
2019-01-03T11:53:59.834Z,98.01
2019-01-03T11:54:59.995Z,97.82
2019-01-03T11:56:00.175Z,98.10
2019-01-03T11:57:00.337Z,98.10
2019-01-03T11:58:00.513Z,97.53
2019-01-03T11:59:00.672Z,98.39
2019-01-03T12:00:00.850Z,98.20
2019-01-03T12:01:01.036Z,98.58
2019-01-03T12:02:01.186Z,98.77
2019-01-03T12:03:01.389Z,98.77
2019-01-03T12:04:01.586Z,98.82
2019-01-03T12:05:01.733Z,98.25
2019-01-03T12:06:01.896Z,98.82
2019-01-03T12:07:02.064Z,97.87
2019-01-03T12:08:02.240Z,98.15
2019-01-03T12:09:02.408Z,98.06
2019-01-03T12:10:02.578Z,97.68
2019-01-03T12:11:03.633Z,97.87
2019-01-03T12:12:03.625Z,97.87
2019-01-03T12:13:03.068Z,97.96
2019-01-03T12:14:03.259Z,98.10
2019-01-03T12:15:03.469Z,98.39
2019-01-03T12:16:03.577Z,98.96
2019-01-03T12:17:03.744Z,98.82
2019-01-03T12:18:03.909Z,98.53
2019-01-03T12:19:04.098Z,98.53
2019-01-03T12:20:04.247Z,98.34
2019-01-03T12:21:04.418Z,98.15
2019-01-03T12:22:04.590Z,98.34
2019-01-03T12:23:04.762Z,98.15
2019-01-03T12:24:04.940Z,98.25
2019-01-03T12:25:05.112Z,98.53
2019-01-03T12:26:05.272Z,99.71
2019-01-03T12:27:05.458Z,99.99
2019-01-03T12:28:05.610Z,98.34
2019-01-03T12:29:05.776Z,97.30
2019-01-03T12:30:05.963Z,96.73
2019-01-03T12:31:06.132Z,96.73
2019-01-03T12:32:06.296Z,96.73
2019-01-03T12:33:06.459Z,96.73
2019-01-03T12:34:06.633Z,96.35
2019-01-03T12:35:06.802Z,97.02
2019-01-03T12:36:06.973Z,97.49
2019-01-03T12:37:07.143Z,97.39
2019-01-03T12:38:07.315Z,97.39
2019-01-03T12:39:07.508Z,97.96
2019-01-03T12:40:07.646Z,97.68
2019-01-03T12:41:07.824Z,97.39
2019-01-03T12:42:07.989Z,98.06
2019-01-03T12:43:08.166Z,98.34
2019-01-03T12:44:08.331Z,98.06
2019-01-03T12:45:08.509Z,98.72
2019-01-03T12:46:08.703Z,98.53
2019-01-03T12:47:08.859Z,98.34
2019-01-03T12:48:09.028Z,98.44
2019-01-03T12:49:09.210Z,98.82
2019-01-03T12:50:09.379Z,99.33
2019-01-03T12:51:09.541Z,98.11
2019-01-03T12:52:09.715Z,97.11
2019-01-03T12:53:09.882Z,97.58
2019-01-03T12:54:10.045Z,98.34
2019-01-03T12:55:10.223Z,97.58
2019-01-03T12:56:10.386Z,98.01
2019-01-03T12:57:10.560Z,97.77
2019-01-03T12:58:10.724Z,97.35
2019-01-03T12:59:10.892Z,97.77
2019-01-03T13:00:11.084Z,97.58